createdAt,value
2023-05-17T00:02:28.480Z,13.60
2023-05-17T00:04:55.390Z,14.00
2023-05-17T00:07:22.363Z,13.70
2023-05-17T00:09:49.325Z,14.90
2023-05-17T00:12:16.358Z,13.60
2023-05-17T00:14:43.383Z,13.60
2023-05-17T00:17:10.353Z,13.60
2023-05-17T00:19:37.410Z,14.50
2023-05-17T00:22:04.626Z,14.50
2023-05-17T00:24:31.576Z,13.60
2023-05-17T00:26:58.582Z,14.50
2023-05-17T00:29:25.948Z,13.60
2023-05-17T00:31:52.968Z,13.60
2023-05-17T00:34:19.868Z,14.30
2023-05-17T00:36:46.756Z,13.60
2023-05-17T00:39:13.789Z,14.00
2023-05-17T00:41:40.884Z,15.10
2023-05-17T00:44:07.806Z,13.90
2023-05-17T00:46:34.877Z,13.60
2023-05-17T00:49:02.072Z,14.50
2023-05-17T00:51:29.599Z,13.60
2023-05-17T00:53:56.733Z,15.30
2023-05-17T00:56:24.573Z,13.60
2023-05-17T00:58:51.678Z,14.70
2023-05-17T01:01:19.188Z,14.20
2023-05-17T01:03:46.680Z,14.20
2023-05-17T01:06:14.431Z,13.90
2023-05-17T01:08:42.305Z,13.50
2023-05-17T01:11:50.722Z,14.30
2023-05-17T01:15:30.930Z,13.50
2023-05-17T01:18:36.005Z,13.50
2023-05-17T01:21:48.759Z,13.50
2023-05-17T01:24:40.380Z,13.50
2023-05-17T01:27:09.074Z,13.50
2023-05-17T01:29:38.644Z,13.70
2023-05-17T01:32:07.240Z,13.80
2023-05-17T01:34:35.651Z,13.50
2023-05-17T01:37:02.665Z,13.50
2023-05-17T01:39:29.786Z,13.80
2023-05-17T01:42:14.188Z,14.70
2023-05-17T01:45:06.687Z,13.50
2023-05-17T01:47:49.241Z,14.80
2023-05-17T01:50:23.889Z,13.50
2023-05-17T01:52:54.431Z,14.70
2023-05-17T01:55:37.639Z,13.50
2023-05-17T01:58:08.636Z,13.80
2023-05-17T02:00:39.297Z,13.70
2023-05-17T02:03:06.471Z,14.70
2023-05-17T02:05:33.918Z,13.50
2023-05-17T02:08:00.949Z,14.70
2023-05-17T02:10:27.877Z,14.10
2023-05-17T02:12:54.913Z,14.40
2023-05-17T02:15:21.936Z,13.60
2023-05-17T02:17:49.150Z,13.50
2023-05-17T02:20:16.292Z,13.80
2023-05-17T02:22:43.266Z,14.50
2023-05-17T02:25:10.478Z,13.50
2023-05-17T02:27:37.668Z,13.50
2023-05-17T02:30:06.081Z,13.50
2023-05-17T02:32:33.808Z,13.50
2023-05-17T02:35:01.080Z,14.80
2023-05-17T02:37:28.089Z,13.50
2023-05-17T02:39:55.054Z,13.50
2023-05-17T02:42:21.941Z,14.80
2023-05-17T02:44:52.910Z,13.70
2023-05-17T02:47:21.334Z,13.60
2023-05-17T02:49:48.443Z,14.60
2023-05-17T02:52:16.318Z,14.40
2023-05-17T02:54:46.046Z,13.60
2023-05-17T02:57:13.026Z,13.60
2023-05-17T02:59:39.969Z,14.70
2023-05-17T03:02:07.446Z,13.80
2023-05-17T03:04:34.435Z,13.60
2023-05-17T03:07:02.083Z,14.20
2023-05-17T03:09:30.276Z,14.60
2023-05-17T03:11:57.387Z,15.10
2023-05-17T03:14:24.519Z,13.60
2023-05-17T03:16:51.577Z,13.60
2023-05-17T03:19:18.826Z,15.10
2023-05-17T03:21:45.896Z,13.60
2023-05-17T03:24:12.899Z,14.20
2023-05-17T03:26:40.133Z,14.80
2023-05-17T03:29:07.096Z,14.60
2023-05-17T03:31:34.199Z,14.20
2023-05-17T03:34:01.597Z,14.10
2023-05-17T03:36:28.639Z,14.30
2023-05-17T03:38:55.921Z,14.60
2023-05-17T03:41:23.213Z,13.60
2023-05-17T03:43:50.515Z,15.30
2023-05-17T03:46:17.479Z,14.90
2023-05-17T03:48:44.517Z,13.60
2023-05-17T03:51:11.665Z,14.00
2023-05-17T03:53:43.077Z,13.80
2023-05-17T03:56:10.999Z,13.60
2023-05-17T03:58:38.367Z,13.70
2023-05-17T04:01:05.746Z,13.70
2023-05-17T04:03:32.900Z,14.40
2023-05-17T04:06:07.130Z,13.70
2023-05-17T04:08:35.341Z,13.70
2023-05-17T04:11:13.908Z,13.80
2023-05-17T04:13:41.785Z,14.40
2023-05-17T04:16:10.133Z,13.70
2023-05-17T04:18:38.948Z,14.00
2023-05-17T04:21:07.022Z,13.80
2023-05-17T04:23:35.031Z,14.60
2023-05-17T04:26:03.354Z,14.90
2023-05-17T04:28:31.217Z,13.80
2023-05-17T04:30:58.584Z,14.00
2023-05-17T04:33:25.826Z,15.00
2023-05-17T04:35:55.715Z,13.90
2023-05-17T04:38:24.009Z,15.00
2023-05-17T04:40:51.217Z,15.10
2023-05-17T04:43:18.274Z,14.30
2023-05-17T04:45:45.434Z,14.00
2023-05-17T04:48:12.619Z,14.30
2023-05-17T04:50:39.884Z,14.10
2023-05-17T04:53:06.842Z,14.00
2023-05-17T04:55:33.809Z,14.70
2023-05-17T04:58:00.946Z,14.10
2023-05-17T05:00:28.044Z,15.80
2023-05-17T05:02:55.216Z,14.20
2023-05-17T05:05:22.336Z,15.70
2023-05-17T05:07:49.357Z,15.80
2023-05-17T05:10:17.073Z,15.20
2023-05-17T05:12:44.840Z,14.30
2023-05-17T05:15:12.230Z,15.50
2023-05-17T05:17:39.342Z,14.40
2023-05-17T05:20:07.814Z,15.10
2023-05-17T05:22:34.974Z,14.50
2023-05-17T05:25:02.030Z,14.60
2023-05-17T05:27:29.121Z,14.70
2023-05-17T05:29:56.292Z,15.50
2023-05-17T05:32:23.325Z,15.50
2023-05-17T05:34:50.336Z,15.10
2023-05-17T05:37:19.228Z,15.10
2023-05-17T05:39:49.100Z,15.20
2023-05-17T05:42:16.173Z,15.90
2023-05-17T05:44:43.181Z,15.20
2023-05-17T05:47:10.158Z,14.60
2023-05-17T05:49:37.283Z,14.60
2023-05-17T05:52:04.564Z,15.50
2023-05-17T05:54:31.696Z,14.60
2023-05-17T05:57:00.682Z,15.60
2023-05-17T05:59:28.251Z,15.70
2023-05-17T06:01:55.247Z,14.60
2023-05-17T06:04:29.768Z,14.60
2023-05-17T06:07:03.700Z,15.00
2023-05-17T06:09:30.647Z,14.60
2023-05-17T06:11:57.652Z,15.50
2023-05-17T06:14:24.653Z,14.80
2023-05-17T06:16:51.573Z,14.90
2023-05-17T06:19:18.611Z,15.00
2023-05-17T06:21:45.688Z,15.90
2023-05-17T06:24:12.607Z,15.00
2023-05-17T06:26:40.804Z,15.50
2023-05-17T06:29:07.790Z,15.20
2023-05-17T06:31:34.716Z,15.20
2023-05-17T06:34:01.706Z,15.20
2023-05-17T06:36:30.660Z,15.90
2023-05-17T06:38:59.367Z,15.20
2023-05-17T06:41:26.445Z,15.30
2023-05-17T06:43:53.959Z,15.20
2023-05-17T06:46:23.992Z,15.20
2023-05-17T06:48:51.481Z,15.10
2023-05-17T06:51:21.274Z,15.20
2023-05-17T06:53:48.253Z,15.20
2023-05-17T06:56:15.715Z,15.60
2023-05-17T06:58:42.860Z,16.00
2023-05-17T07:01:10.298Z,15.40
2023-05-17T07:03:37.444Z,15.90
2023-05-17T07:06:05.116Z,15.40
2023-05-17T07:08:32.081Z,15.30
2023-05-17T07:10:59.051Z,15.30
2023-05-17T07:13:26.352Z,15.60
2023-05-17T07:15:53.362Z,15.90
2023-05-17T07:18:20.632Z,15.30
2023-05-17T07:20:47.695Z,15.80
2023-05-17T07:23:14.719Z,15.30
2023-05-17T07:25:43.164Z,15.30
2023-05-17T07:28:13.165Z,16.00
2023-05-17T07:30:40.081Z,15.30
2023-05-17T07:33:07.158Z,15.30
2023-05-17T07:35:34.177Z,15.30
2023-05-17T07:38:01.216Z,15.30
2023-05-17T07:40:28.404Z,15.60
2023-05-17T07:42:55.612Z,15.90
2023-05-17T07:45:22.584Z,15.20
2023-05-17T07:47:49.755Z,15.20
2023-05-17T07:50:17.139Z,15.20
2023-05-17T07:52:44.141Z,15.10
2023-05-17T07:55:11.321Z,15.00
2023-05-17T07:57:38.381Z,15.00
2023-05-17T08:00:08.857Z,15.00
2023-05-17T08:02:36.161Z,14.90
2023-05-17T08:05:03.184Z,14.90
2023-05-17T08:07:30.137Z,14.90
2023-05-17T08:09:57.291Z,15.20
2023-05-17T08:12:24.288Z,14.80
2023-05-17T08:14:51.634Z,14.80
2023-05-17T08:17:18.917Z,14.80
2023-05-17T08:19:46.076Z,14.80
2023-05-17T08:22:13.075Z,14.70
2023-05-17T08:24:40.024Z,14.70
2023-05-17T08:27:07.050Z,14.60
2023-05-17T08:29:34.067Z,14.60
2023-05-17T08:32:01.102Z,16.10
2023-05-17T08:34:28.032Z,15.50
2023-05-17T08:36:55.456Z,14.90
2023-05-17T08:39:22.413Z,15.50
2023-05-17T08:41:49.539Z,14.70
2023-05-17T08:44:17.401Z,14.60
2023-05-17T08:46:44.890Z,14.50
2023-05-17T08:49:13.074Z,15.30
2023-05-17T08:51:42.158Z,14.90
2023-05-17T08:54:09.188Z,14.60
2023-05-17T08:56:39.477Z,15.40
2023-05-17T08:59:10.278Z,14.40
2023-05-17T09:01:39.999Z,16.30
2023-05-17T09:04:12.360Z,14.40
2023-05-17T09:06:39.347Z,14.80
2023-05-17T09:09:09.055Z,14.90
2023-05-17T09:11:36.345Z,14.30
2023-05-17T09:14:07.210Z,14.40
2023-05-17T09:16:37.332Z,14.20
2023-05-17T09:19:09.006Z,15.40
2023-05-17T09:21:37.738Z,14.20
2023-05-17T09:24:08.440Z,14.20
2023-05-17T09:26:45.374Z,14.10
2023-05-17T09:29:15.498Z,14.10
2023-05-17T09:31:44.231Z,14.10
2023-05-17T09:34:11.998Z,14.10
2023-05-17T09:36:43.598Z,14.00
2023-05-17T09:39:14.445Z,14.10
2023-05-17T09:41:51.202Z,14.60
2023-05-17T09:44:18.216Z,14.10
2023-05-17T09:46:48.355Z,14.60
2023-05-17T09:49:17.593Z,14.40
2023-05-17T09:51:49.679Z,14.30
2023-05-17T09:54:17.950Z,14.20
2023-05-17T09:56:45.207Z,14.10
2023-05-17T09:59:16.755Z,15.00
2023-05-17T10:01:45.909Z,14.10
2023-05-17T10:04:14.462Z,14.60
2023-05-17T10:06:49.841Z,14.70
2023-05-17T10:09:21.918Z,14.00
2023-05-17T10:11:52.532Z,14.00
2023-05-17T10:14:33.822Z,14.00
2023-05-17T10:17:03.208Z,15.00
2023-05-17T10:19:31.433Z,14.70
2023-05-17T10:22:08.264Z,14.80
2023-05-17T10:24:46.614Z,14.00
2023-05-17T10:27:14.104Z,14.00
2023-05-17T10:29:42.485Z,14.00
2023-05-17T10:32:10.974Z,14.10
2023-05-17T10:34:39.948Z,14.20
2023-05-17T10:37:07.913Z,14.00
2023-05-17T10:39:39.004Z,14.00
2023-05-17T10:44:40.930Z,14.80
2023-05-17T10:47:08.851Z,13.90
2023-05-17T10:49:39.839Z,14.00
2023-05-17T10:52:18.865Z,14.00
2023-05-17T10:54:50.409Z,14.00
2023-05-17T10:57:50.041Z,14.90
2023-05-17T11:00:22.215Z,14.00
2023-05-17T11:02:50.543Z,14.30
2023-05-17T11:05:28.100Z,14.60
2023-05-17T11:08:15.540Z,14.10
2023-05-17T11:11:19.623Z,14.30
2023-05-17T11:13:56.440Z,14.00
2023-05-17T11:16:34.235Z,14.00
2023-05-17T11:19:11.966Z,14.00
2023-05-17T11:21:49.098Z,14.10
2023-05-17T11:24:26.923Z,14.10
2023-05-17T11:26:56.415Z,15.00
2023-05-17T11:29:30.544Z,14.80
2023-05-17T11:31:57.555Z,14.20
2023-05-17T11:34:26.805Z,14.70
2023-05-17T11:36:56.477Z,15.30
2023-05-17T11:39:25.378Z,14.80
2023-05-17T11:41:56.936Z,14.40
2023-05-17T11:44:32.530Z,14.70
2023-05-17T11:47:10.004Z,14.40
2023-05-17T11:49:39.891Z,14.40
2023-05-17T11:52:07.890Z,14.50
2023-05-17T11:54:35.594Z,14.60
2023-05-17T11:57:03.772Z,14.60
2023-05-17T11:59:40.851Z,14.60
2023-05-17T12:02:08.025Z,14.80
2023-05-17T12:04:37.817Z,14.80
2023-05-17T12:07:05.675Z,14.90
2023-05-17T12:09:32.746Z,14.80
2023-05-17T12:12:04.638Z,15.20
2023-05-17T12:14:31.978Z,15.30
2023-05-17T12:17:02.555Z,15.30
2023-05-17T12:19:30.491Z,15.40
2023-05-17T12:22:15.090Z,16.00
2023-05-17T12:24:43.249Z,15.00
2023-05-17T12:27:10.793Z,15.20
2023-05-17T12:29:39.333Z,15.70
2023-05-17T12:32:08.702Z,15.10
2023-05-17T12:34:36.000Z,15.10
2023-05-17T12:37:03.599Z,15.20
2023-05-17T12:39:31.720Z,15.60
2023-05-17T12:41:59.536Z,15.70
2023-05-17T12:44:26.585Z,15.10
2023-05-17T12:46:56.304Z,15.10
2023-05-17T12:49:23.593Z,15.10
2023-05-17T12:51:50.591Z,15.10
2023-05-17T12:54:23.962Z,15.10
2023-05-17T12:56:51.452Z,15.00
2023-05-17T12:59:21.162Z,15.00
2023-05-17T13:01:55.532Z,15.70
2023-05-17T13:04:31.858Z,15.00
2023-05-17T13:07:02.227Z,14.90
2023-05-17T13:09:32.066Z,14.80
2023-05-17T13:12:02.463Z,16.20
2023-05-17T13:14:45.632Z,14.80
2023-05-17T13:17:25.297Z,14.70
2023-05-17T13:19:53.081Z,14.60
2023-05-17T13:22:20.311Z,14.80
2023-05-17T13:24:47.472Z,15.20
2023-05-17T13:27:14.570Z,15.10
2023-05-17T13:29:43.283Z,14.50
2023-05-17T13:32:12.736Z,14.50
2023-05-17T13:34:41.274Z,14.80
2023-05-17T13:37:11.493Z,14.40
2023-05-17T13:39:41.476Z,14.40
2023-05-17T13:42:09.813Z,15.10
2023-05-17T13:44:38.318Z,14.50
2023-05-17T13:47:05.814Z,14.80
2023-05-17T13:49:32.884Z,14.60
2023-05-17T13:52:00.643Z,15.00
2023-05-17T13:54:27.904Z,15.60
2023-05-17T13:56:55.586Z,14.80
2023-05-17T13:59:22.679Z,15.50
2023-05-17T14:01:49.738Z,15.10
2023-05-17T14:04:17.098Z,15.10
2023-05-17T14:06:45.331Z,15.80
2023-05-17T14:09:13.569Z,15.20
2023-05-17T14:11:42.871Z,15.30
2023-05-17T14:14:09.873Z,15.30
2023-05-17T14:16:37.654Z,16.20
2023-05-17T14:19:05.076Z,15.30
2023-05-17T14:21:32.787Z,15.30
2023-05-17T14:23:59.702Z,15.30
2023-05-17T14:26:27.149Z,15.40
2023-05-17T14:28:54.199Z,15.90
2023-05-17T14:31:21.352Z,15.30
2023-05-17T14:33:48.505Z,15.20
2023-05-17T14:36:15.717Z,15.90
2023-05-17T14:38:42.741Z,17.20
2023-05-17T14:41:09.648Z,17.00
2023-05-17T14:43:36.668Z,15.40
2023-05-17T14:46:04.511Z,16.30
2023-05-17T14:48:31.611Z,15.10
2023-05-17T14:51:03.402Z,15.20
2023-05-17T14:53:30.862Z,15.10
2023-05-17T14:55:58.914Z,15.10
2023-05-17T14:58:26.439Z,15.10
2023-05-17T15:01:05.076Z,15.00
2023-05-17T15:03:33.476Z,15.10
2023-05-17T15:06:02.057Z,15.90
2023-05-17T15:08:30.256Z,15.80
2023-05-17T15:10:57.847Z,17.30
2023-05-17T15:13:25.590Z,15.10
2023-05-17T15:15:53.014Z,15.80
2023-05-17T15:18:20.596Z,14.80
2023-05-17T15:20:47.498Z,14.70
2023-05-17T15:23:14.512Z,14.70
2023-05-17T15:25:41.546Z,15.30
2023-05-17T15:28:08.570Z,14.70
2023-05-17T15:30:35.547Z,15.30
2023-05-17T15:33:02.811Z,15.20
2023-05-17T15:35:30.275Z,14.60
2023-05-17T15:37:59.448Z,15.60
2023-05-17T15:40:26.678Z,14.70
2023-05-17T15:42:53.665Z,15.00
2023-05-17T15:45:21.439Z,15.40
2023-05-17T15:47:49.403Z,15.70
2023-05-17T15:50:16.847Z,16.00
2023-05-17T15:52:43.916Z,14.40
2023-05-17T15:55:11.389Z,15.60
2023-05-17T15:57:38.604Z,15.90
2023-05-17T16:00:06.576Z,15.50
2023-05-17T16:02:34.091Z,14.10
2023-05-17T16:05:03.501Z,14.10
2023-05-17T16:07:31.404Z,15.20
2023-05-17T16:09:58.596Z,14.00
2023-05-17T16:12:25.630Z,14.60
2023-05-17T16:14:52.603Z,14.00
2023-05-17T16:17:19.675Z,14.50
2023-05-17T16:19:46.740Z,16.00
2023-05-17T16:22:14.071Z,14.30
2023-05-17T16:24:41.955Z,14.40
2023-05-17T16:27:08.884Z,14.10
2023-05-17T16:29:40.331Z,13.90
2023-05-17T16:32:08.502Z,14.20
2023-05-17T16:34:35.980Z,15.60
2023-05-17T16:37:04.857Z,13.70
2023-05-17T16:39:32.717Z,13.90
2023-05-17T16:41:59.866Z,14.80
2023-05-17T16:44:26.908Z,15.00
2023-05-17T16:46:54.046Z,13.60
2023-05-17T16:49:21.398Z,14.20
2023-05-17T16:51:52.234Z,13.50
2023-05-17T16:54:19.249Z,15.10
2023-05-17T16:56:46.490Z,15.10
2023-05-17T16:59:13.514Z,14.30
2023-05-17T17:01:40.681Z,14.60
2023-05-17T17:04:07.805Z,13.90
2023-05-17T17:06:35.443Z,14.10
2023-05-17T17:09:07.742Z,13.30
2023-05-17T17:11:35.146Z,16.10
2023-05-17T17:14:02.487Z,14.40
2023-05-17T17:16:29.826Z,14.00
2023-05-17T17:18:57.748Z,13.80
2023-05-17T17:21:25.218Z,13.20
2023-05-17T17:23:52.311Z,14.70
2023-05-17T17:26:19.254Z,13.10
2023-05-17T17:28:46.269Z,13.90
2023-05-17T17:31:13.205Z,13.10
2023-05-17T17:33:40.349Z,14.80
2023-05-17T17:36:09.124Z,13.10
2023-05-17T17:38:36.206Z,13.10
2023-05-17T17:41:03.512Z,13.50
2023-05-17T17:43:30.534Z,13.00
2023-05-17T17:45:57.551Z,13.90
2023-05-17T17:48:25.606Z,13.00
2023-05-17T17:50:52.624Z,13.60
2023-05-17T17:53:19.688Z,13.10
2023-05-17T17:55:46.714Z,12.80
2023-05-17T17:58:13.749Z,14.20
2023-05-17T18:00:41.445Z,14.10
2023-05-17T18:03:09.738Z,13.20
2023-05-17T18:05:37.018Z,12.80
2023-05-17T18:08:04.213Z,14.10
2023-05-17T18:10:32.012Z,12.80
2023-05-17T18:12:59.313Z,12.80
2023-05-17T18:15:26.465Z,14.10
2023-05-17T18:17:54.908Z,14.10
2023-05-17T18:20:26.346Z,15.30
2023-05-17T18:22:53.809Z,14.10
2023-05-17T18:25:21.600Z,13.50
2023-05-17T18:27:48.656Z,12.50
2023-05-17T18:30:15.719Z,12.50
2023-05-17T18:32:42.877Z,12.40
2023-05-17T18:35:10.714Z,12.50
2023-05-17T18:37:37.768Z,12.40
2023-05-17T18:40:05.737Z,12.30
2023-05-17T18:42:32.977Z,12.30
2023-05-17T18:45:01.053Z,12.60
2023-05-17T18:47:28.178Z,12.30
2023-05-17T18:49:55.242Z,13.70
2023-05-17T18:52:22.277Z,13.90
2023-05-17T18:54:49.507Z,13.70
2023-05-17T18:57:16.473Z,12.20
2023-05-17T18:59:43.428Z,12.20
2023-05-17T19:02:10.412Z,12.10
2023-05-17T19:04:37.736Z,12.10
2023-05-17T19:07:04.972Z,12.10
2023-05-17T19:09:33.579Z,12.10
2023-05-17T19:12:01.230Z,12.60
2023-05-17T19:14:28.222Z,13.00
2023-05-17T19:16:57.157Z,12.90
2023-05-17T19:19:25.778Z,12.00
2023-05-17T19:21:52.950Z,13.10
2023-05-17T19:24:19.961Z,12.90
2023-05-17T19:26:46.959Z,12.20
2023-05-17T19:29:13.968Z,12.40
2023-05-17T19:31:41.012Z,13.60
2023-05-17T19:34:08.002Z,13.80
2023-05-17T19:36:35.074Z,13.50
2023-05-17T19:39:02.150Z,13.30
2023-05-17T19:41:29.597Z,12.60
2023-05-17T19:43:56.578Z,13.40
2023-05-17T19:46:23.643Z,12.20
2023-05-17T19:48:50.950Z,11.90
2023-05-17T19:51:17.919Z,11.90
2023-05-17T19:53:52.416Z,11.90
2023-05-17T19:56:23.516Z,12.70
2023-05-17T19:58:52.573Z,11.90
2023-05-17T20:01:21.544Z,13.40
2023-05-17T20:03:48.827Z,11.90
2023-05-17T20:06:15.843Z,11.90
2023-05-17T20:08:42.836Z,13.20
2023-05-17T20:11:09.882Z,13.20
2023-05-17T20:13:40.300Z,14.60
2023-05-17T20:16:12.827Z,13.20
2023-05-17T20:18:44.810Z,13.20
2023-05-17T20:21:18.677Z,11.80
2023-05-17T20:23:46.689Z,12.90
2023-05-17T20:26:18.841Z,13.20
2023-05-17T20:28:46.344Z,11.80
2023-05-17T20:31:13.537Z,12.60
2023-05-17T20:33:40.717Z,12.60
2023-05-17T20:36:10.011Z,11.80
2023-05-17T20:38:36.969Z,11.70
2023-05-17T20:41:06.583Z,12.20
2023-05-17T20:43:34.936Z,11.70
2023-05-17T20:46:06.647Z,12.10
2023-05-17T20:48:37.399Z,13.50
2023-05-17T20:51:04.398Z,12.30
2023-05-17T20:53:31.905Z,12.30
2023-05-17T20:55:59.258Z,13.40
2023-05-17T20:58:29.073Z,11.70
2023-05-17T21:00:57.532Z,11.80
2023-05-17T21:03:28.268Z,11.80
2023-05-17T21:05:55.806Z,14.50
2023-05-17T21:08:23.843Z,11.80
2023-05-17T21:10:53.522Z,11.80
2023-05-17T21:13:21.749Z,12.50
2023-05-17T21:15:48.778Z,11.80
2023-05-17T21:18:16.036Z,14.30
2023-05-17T21:20:43.060Z,13.10
2023-05-17T21:23:10.001Z,13.10
2023-05-17T21:25:37.865Z,13.60
2023-05-17T21:28:05.932Z,11.80
2023-05-17T21:30:33.106Z,11.70
2023-05-17T21:33:00.208Z,12.00
2023-05-17T21:35:27.273Z,12.20
2023-05-17T21:37:54.267Z,12.20
2023-05-17T21:40:21.315Z,13.40
2023-05-17T21:42:49.067Z,11.70
2023-05-17T21:45:16.215Z,12.90
2023-05-17T21:47:43.391Z,12.40
2023-05-17T21:50:10.983Z,11.60
2023-05-17T21:52:38.074Z,11.70
2023-05-17T21:55:05.982Z,12.80
2023-05-17T21:57:36.525Z,11.60
2023-05-17T22:00:05.967Z,11.90
2023-05-17T22:02:35.936Z,11.70
2023-05-17T22:05:03.351Z,11.70
2023-05-17T22:07:30.421Z,11.70
2023-05-17T22:09:58.378Z,10.50
2023-05-17T22:12:26.323Z,11.60
2023-05-17T22:14:55.922Z,11.60
2023-05-17T22:17:35.131Z,11.70
2023-05-17T22:20:11.486Z,11.60
2023-05-17T22:22:38.665Z,11.70
2023-05-17T22:25:06.878Z,11.70
2023-05-17T22:27:33.979Z,11.60
2023-05-17T22:30:01.225Z,11.70
2023-05-17T22:32:28.355Z,11.70
2023-05-17T22:34:56.340Z,13.30
2023-05-17T22:37:23.692Z,13.30
2023-05-17T22:39:50.754Z,12.40
2023-05-17T22:42:17.747Z,11.60
2023-05-17T22:44:44.837Z,11.60
2023-05-17T22:47:14.527Z,13.20
2023-05-17T22:49:42.234Z,11.70
2023-05-17T22:52:11.116Z,11.60
2023-05-17T22:54:38.693Z,12.10
2023-05-17T22:57:06.564Z,11.90
2023-05-17T22:59:33.721Z,11.60
2023-05-17T23:02:02.708Z,12.00
2023-05-17T23:04:30.208Z,11.80
2023-05-17T23:07:04.288Z,12.80
2023-05-17T23:09:33.516Z,13.20
2023-05-17T23:12:05.607Z,12.90
2023-05-17T23:14:36.725Z,13.00
2023-05-17T23:17:05.401Z,11.60
2023-05-17T23:19:35.519Z,11.60
2023-05-17T23:22:03.479Z,12.30
2023-05-17T23:24:30.557Z,13.50
2023-05-17T23:26:57.759Z,13.30
2023-05-17T23:29:26.140Z,11.60
2023-05-17T23:31:53.771Z,11.50
2023-05-17T23:34:22.053Z,12.50
2023-05-17T23:36:49.110Z,11.50
2023-05-17T23:39:16.124Z,13.40
2023-05-17T23:41:43.187Z,13.30
2023-05-17T23:44:10.444Z,11.40
2023-05-17T23:46:37.809Z,11.40
2023-05-17T23:49:05.892Z,12.80
2023-05-17T23:51:34.654Z,12.40
2023-05-17T23:54:01.790Z,11.70
2023-05-17T23:56:28.923Z,11.30
2023-05-17T23:58:56.031Z,11.30
